Time;durP1;ratioP1;P1;durP2;ratioP2;P2;SDS_P1;SDS_P2;PMS_P1;PMS_P2;Temp;Humidity;BMP_temperature;BMP_pressure;BME280_temperature;BME280_humidity;BME280_pressure;Samples;Min_cycle;Max_cycle;Signal;HPM_P1;HPM_P2
2024/02/10 00:02:10;;;;;;;;;5.00;5.00;;;;;;;;5079206;28;45833;-77
2024/02/10 00:04:41;;;;;;;;;4.00;4.00;;;;;;;;5081135;27;45283;-76
2024/02/10 00:07:06;;;;;;;;;3.67;3.67;;;;;;;;5080710;27;45223;-77
2024/02/10 00:09:32;;;;;;;;;3.00;3.00;;;;;;;;5081097;27;45209;-76
2024/02/10 00:11:58;;;;;;;;;6.00;5.00;;;;;;;;5081211;27;45252;-76
2024/02/10 00:14:23;;;;;;;;;5.67;4.67;;;;;;;;5080850;27;45184;-77
2024/02/10 00:16:48;;;;;;;;;4.00;4.00;;;;;;;;5080796;27;45170;-76
2024/02/10 00:19:13;;;;;;;;;5.33;4.67;;;;;;;;5079519;28;47264;-76
2024/02/10 00:21:39;;;;;;;;;6.33;5.00;;;;;;;;5080900;27;45365;-76
2024/02/10 00:24:07;;;;;;;;;6.67;6.67;;;;;;;;5080956;28;45241;-76
2024/02/10 00:26:33;;;;;;;;;10.00;7.00;;;;;;;;5080341;27;46049;-76
2024/02/10 00:28:58;;;;;;;;;2.00;2.00;;;;;;;;5080772;27;45513;-77
2024/02/10 00:31:24;;;;;;;;;6.67;5.33;;;;;;;;5080716;27;45321;-76
2024/02/10 00:33:50;;;;;;;;;6.00;5.00;;;;;;;;5080433;27;45758;-77
2024/02/10 00:36:16;;;;;;;;;6.67;6.67;;;;;;;;5079028;28;46192;-77
2024/02/10 00:38:42;;;;;;;;;5.00;5.00;;;;;;;;5080299;27;45704;-76
2024/02/10 00:41:09;;;;;;;;;7.33;7.33;;;;;;;;5078958;28;45316;-76
2024/02/10 00:43:37;;;;;;;;;8.33;8.33;;;;;;;;5080475;27;45319;-77
2024/02/10 00:46:06;;;;;;;;;8.00;7.67;;;;;;;;5080361;27;45307;-76
2024/02/10 00:48:32;;;;;;;;;17.33;15.67;;;;;;;;5078633;28;46116;-77
2024/02/10 00:51:00;;;;;;;;;14.00;14.00;;;;;;;;5080163;27;45199;-76
2024/02/10 00:53:26;;;;;;;;;19.33;16.33;;;;;;;;5080122;27;45324;-76
2024/02/10 00:55:51;;;;;;;;;15.00;14.33;;;;;;;;5080071;27;45341;-76
2024/02/10 00:58:16;;;;;;;;;16.67;14.67;;;;;;;;5062913;28;48597;-77
2024/02/10 01:00:42;;;;;;;;;16.00;12.67;;;;;;;;5058258;28;45417;-76
2024/02/10 01:03:08;;;;;;;;;11.00;11.00;;;;;;;;5059864;28;45405;-76
2024/02/10 01:05:34;;;;;;;;;9.67;6.67;;;;;;;;5059562;28;45392;-76
2024/02/10 01:07:59;;;;;;;;;7.00;7.00;;;;;;;;5059697;28;46877;-76
2024/02/10 01:10:25;;;;;;;;;6.33;6.00;;;;;;;;5059791;28;45193;-76
2024/02/10 01:12:50;;;;;;;;;10.67;9.00;;;;;;;;5059628;28;45430;-76
2024/02/10 01:15:16;;;;;;;;;9.67;7.33;;;;;;;;5058158;28;46062;-77
2024/02/10 01:17:46;;;;;;;;;6.67;6.00;;;;;;;;5059395;28;45684;-77
2024/02/10 01:20:12;;;;;;;;;6.67;6.67;;;;;;;;5059505;28;45325;-76
2024/02/10 01:22:41;;;;;;;;;6.00;6.00;;;;;;;;5058553;28;45419;-76
2024/02/10 01:25:06;;;;;;;;;7.67;6.67;;;;;;;;5059392;28;45314;-76
2024/02/10 01:27:32;;;;;;;;;2.00;2.00;;;;;;;;5058169;28;47160;-76
2024/02/10 01:29:57;;;;;;;;;6.00;6.00;;;;;;;;5059357;28;45287;-76
2024/02/10 01:32:25;;;;;;;;;8.00;7.00;;;;;;;;5059359;28;45432;-76
2024/02/10 01:34:53;;;;;;;;;7.00;7.00;;;;;;;;5057937;28;45615;-76
2024/02/10 01:37:18;;;;;;;;;7.33;7.00;;;;;;;;5058855;28;45486;-76
2024/02/10 01:39:44;;;;;;;;;3.00;2.00;;;;;;;;5058957;28;45328;-77
2024/02/10 01:42:10;;;;;;;;;6.00;6.00;;;;;;;;5059394;28;45231;-77
2024/02/10 01:44:35;;;;;;;;;5.33;5.33;;;;;;;;5059219;28;45268;-76
2024/02/10 01:47:01;;;;;;;;;8.33;7.00;;;;;;;;5059061;28;47127;-76
2024/02/10 01:49:26;;;;;;;;;6.33;6.33;;;;;;;;5059256;28;45314;-76
2024/02/10 01:51:51;;;;;;;;;7.33;6.00;;;;;;;;5059251;28;45256;-76
2024/02/10 01:54:17;;;;;;;;;6.00;6.00;;;;;;;;5059129;28;45239;-76
2024/02/10 01:56:42;;;;;;;;;7.00;4.67;;;;;;;;5061365;28;45999;-77
2024/02/10 01:59:09;;;;;;;;;5.00;5.00;;;;;;;;5079435;28;45307;-76
2024/02/10 02:01:36;;;;;;;;;4.00;4.00;;;;;;;;5079350;28;45567;-76
2024/02/10 02:04:02;;;;;;;;;5.67;5.00;;;;;;;;5079259;27;45353;-77
2024/02/10 02:06:31;;;;;;;;;4.00;4.00;;;;;;;;5079206;27;46957;-76
2024/02/10 02:09:00;;;;;;;;;6.00;5.33;;;;;;;;5079452;27;45327;-76
2024/02/10 02:11:25;;;;;;;;;5.00;5.00;;;;;;;;5079483;27;45310;-76
2024/02/10 02:13:50;;;;;;;;;7.00;6.00;;;;;;;;5079189;27;45297;-76
2024/02/10 02:16:17;;;;;;;;;6.00;4.00;;;;;;;;5079088;27;46297;-76
2024/02/10 02:18:43;;;;;;;;;5.00;5.00;;;;;;;;5077611;28;45302;-76
2024/02/10 02:21:08;;;;;;;;;3.67;3.67;;;;;;;;5079421;27;45280;-76
2024/02/10 02:23:34;;;;;;;;;4.67;4.67;;;;;;;;5080205;27;45203;-76
2024/02/10 02:26:00;;;;;;;;;3.67;3.67;;;;;;;;5082385;27;46948;-77
2024/02/10 02:28:25;;;;;;;;;3.00;3.00;;;;;;;;5081359;28;45253;-76
2024/02/10 02:30:50;;;;;;;;;4.00;4.00;;;;;;;;5081236;28;45346;-76
2024/02/10 02:33:15;;;;;;;;;4.33;3.67;;;;;;;;5082432;27;45421;-76
2024/02/10 02:35:43;;;;;;;;;4.00;3.67;;;;;;;;5082388;27;45306;-76
2024/02/10 02:38:08;;;;;;;;;4.33;4.00;;;;;;;;5082454;27;45399;-77
2024/02/10 02:40:34;;;;;;;;;4.00;4.00;;;;;;;;5082456;28;45258;-76
2024/02/10 02:43:02;;;;;;;;;4.00;4.00;;;;;;;;5082335;28;45547;-76
2024/02/10 02:45:28;;;;;;;;;6.00;6.00;;;;;;;;5082218;27;47437;-77
2024/02/10 02:47:56;;;;;;;;;5.33;4.00;;;;;;;;5082018;27;45263;-77
2024/02/10 02:50:24;;;;;;;;;5.33;5.33;;;;;;;;5082257;27;45440;-77
2024/02/10 02:52:49;;;;;;;;;5.67;5.00;;;;;;;;5081995;27;45416;-76
2024/02/10 02:55:15;;;;;;;;;5.67;5.67;;;;;;;;5082012;27;45420;-76
2024/02/10 02:57:40;;;;;;;;;5.67;5.67;;;;;;;;5071456;27;45377;-76
2024/02/10 03:00:06;;;;;;;;;5.00;5.00;;;;;;;;5060550;28;45319;-77
2024/02/10 03:02:34;;;;;;;;;6.00;4.00;;;;;;;;5061647;28;45791;-76
2024/02/10 03:04:59;;;;;;;;;5.00;5.00;;;;;;;;5061511;28;46496;-76
2024/02/10 03:07:30;;;;;;;;;8.33;7.33;;;;;;;;5061682;28;45202;-76
2024/02/10 03:09:55;;;;;;;;;5.67;5.67;;;;;;;;5061869;28;45396;-77
2024/02/10 03:12:20;;;;;;;;;4.00;4.00;;;;;;;;5059914;28;45778;-78
2024/02/10 03:14:45;;;;;;;;;5.00;5.00;;;;;;;;5060261;28;47174;-76
2024/02/10 03:17:12;;;;;;;;;6.00;5.00;;;;;;;;5061370;28;45380;-76
2024/02/10 03:19:37;;;;;;;;;5.00;4.00;;;;;;;;5061610;28;45315;-77
2024/02/10 03:22:03;;;;;;;;;4.00;4.00;;;;;;;;5061438;28;45336;-76
2024/02/10 03:24:30;;;;;;;;;4.00;4.00;;;;;;;;5059888;28;47011;-77
2024/02/10 03:26:55;;;;;;;;;5.00;5.00;;;;;;;;5061057;28;45180;-76
2024/02/10 03:29:20;;;;;;;;;6.00;6.00;;;;;;;;5061588;28;45125;-76
2024/02/10 03:31:45;;;;;;;;;5.00;4.00;;;;;;;;5059121;28;45944;-76
2024/02/10 03:34:10;;;;;;;;;5.00;4.00;;;;;;;;5059304;28;48131;-76
2024/02/10 03:36:36;;;;;;;;;5.00;5.00;;;;;;;;5061270;28;45299;-77
2024/02/10 03:39:07;;;;;;;;;5.00;3.00;;;;;;;;5061467;28;45219;-76
2024/02/10 03:41:32;;;;;;;;;2.67;2.67;;;;;;;;5061179;28;45330;-77
2024/02/10 03:43:57;;;;;;;;;4.33;4.33;;;;;;;;5061082;28;46242;-76
2024/02/10 03:46:23;;;;;;;;;6.33;5.00;;;;;;;;5061228;28;45351;-77
2024/02/10 03:48:48;;;;;;;;;4.33;4.33;;;;;;;;5059546;28;45268;-76
2024/02/10 03:51:14;;;;;;;;;4.00;4.00;;;;;;;;5060797;28;45326;-76
2024/02/10 03:53:39;;;;;;;;;4.33;4.33;;;;;;;;5059677;28;46520;-76
2024/02/10 03:56:05;;;;;;;;;6.00;5.00;;;;;;;;5061052;28;45156;-76
2024/02/10 03:58:31;;;;;;;;;4.33;3.33;;;;;;;;5077422;28;45268;-77
2024/02/10 04:00:57;;;;;;;;;3.00;3.00;;;;;;;;5079669;28;46146;-76
2024/02/10 04:03:22;;;;;;;;;6.67;6.67;;;;;;;;5080830;28;45332;-76
2024/02/10 04:05:48;;;;;;;;;4.33;4.00;;;;;;;;5079784;28;45197;-76
2024/02/10 04:08:14;;;;;;;;;7.67;7.67;;;;;;;;5081331;27;45172;-76
2024/02/10 04:10:40;;;;;;;;;7.33;6.67;;;;;;;;5080882;27;45334;-76
2024/02/10 04:13:05;;;;;;;;;5.00;4.33;;;;;;;;5080828;27;45361;-76
2024/02/10 04:15:32;;;;;;;;;3.67;3.67;;;;;;;;5080806;27;45349;-76
2024/02/10 04:17:57;;;;;;;;;6.67;6.00;;;;;;;;5080609;27;45343;-76
2024/02/10 04:20:23;;;;;;;;;7.00;6.00;;;;;;;;5080329;28;45457;-76
2024/02/10 04:22:51;;;;;;;;;7.00;4.67;;;;;;;;5080788;27;46846;-76
2024/02/10 04:25:16;;;;;;;;;6.00;6.00;;;;;;;;5080686;27;45246;-77
2024/02/10 04:27:42;;;;;;;;;7.33;7.33;;;;;;;;5080722;27;45231;-76
2024/02/10 04:30:07;;;;;;;;;8.67;7.33;;;;;;;;5080111;27;45645;-76
2024/02/10 04:32:33;;;;;;;;;6.67;6.67;;;;;;;;5079011;27;45724;-76
2024/02/10 04:34:59;;;;;;;;;8.00;7.33;;;;;;;;5079104;27;45390;-76
2024/02/10 04:37:24;;;;;;;;;9.00;9.00;;;;;;;;5079185;28;45333;-76
2024/02/10 04:39:49;;;;;;;;;9.00;7.00;;;;;;;;5080446;27;46051;-77
2024/02/10 04:42:15;;;;;;;;;11.33;8.67;;;;;;;;5080570;27;45378;-76
2024/02/10 04:44:40;;;;;;;;;10.67;10.00;;;;;;;;5080553;27;45235;-76
2024/02/10 04:47:05;;;;;;;;;8.67;8.67;;;;;;;;5078406;28;45338;-76
2024/02/10 04:49:33;;;;;;;;;12.33;10.33;;;;;;;;5080320;27;45310;-76
2024/02/10 04:51:58;;;;;;;;;10.00;8.33;;;;;;;;5080260;28;45294;-76
2024/02/10 04:54:24;;;;;;;;;8.00;8.00;;;;;;;;5079995;27;45376;-76
2024/02/10 04:56:50;;;;;;;;;10.00;7.00;;;;;;;;5075616;28;45292;-76
2024/02/10 04:59:24;;;;;;;;;9.33;7.33;;;;;;;;5058637;28;46708;-76
2024/02/10 05:01:50;;;;;;;;;8.67;7.67;;;;;;;;5059489;28;47145;-76
2024/02/10 05:04:15;;;;;;;;;8.00;7.00;;;;;;;;5059156;28;45289;-77
2024/02/10 05:06:42;;;;;;;;;6.00;6.00;;;;;;;;5059197;28;45307;-77
2024/02/10 05:09:07;;;;;;;;;5.00;5.00;;;;;;;;5058920;28;45400;-77
2024/02/10 05:11:33;;;;;;;;;11.00;9.67;;;;;;;;5059145;28;45202;-76
2024/02/10 05:13:58;;;;;;;;;6.33;6.33;;;;;;;;5058459;28;45276;-76
2024/02/10 05:16:23;;;;;;;;;7.00;6.67;;;;;;;;5059718;28;45157;-76
2024/02/10 05:18:51;;;;;;;;;7.00;7.00;;;;;;;;5059638;28;45588;-76
2024/02/10 05:21:17;;;;;;;;;10.00;7.67;;;;;;;;5059670;28;45524;-76
2024/02/10 05:23:48;;;;;;;;;8.00;8.00;;;;;;;;5058264;28;45310;-76
2024/02/10 05:26:15;;;;;;;;;8.00;7.00;;;;;;;;5059526;28;45423;-77
2024/02/10 05:28:41;;;;;;;;;8.33;7.00;;;;;;;;5059516;28;45341;-76
2024/02/10 05:31:06;;;;;;;;;10.33;10.00;;;;;;;;5059386;28;45998;-76
2024/02/10 05:33:31;;;;;;;;;7.00;6.67;;;;;;;;5057852;28;45429;-76
2024/02/10 05:35:56;;;;;;;;;6.00;6.00;;;;;;;;5058105;28;45340;-76
2024/02/10 05:38:22;;;;;;;;;11.00;8.33;;;;;;;;5058118;28;47415;-76
2024/02/10 05:40:47;;;;;;;;;10.67;8.00;;;;;;;;5059130;28;46704;-76
2024/02/10 05:43:14;;;;;;;;;12.00;11.67;;;;;;;;5059349;28;45282;-76
2024/02/10 05:45:39;;;;;;;;;7.00;7.00;;;;;;;;5058185;28;45244;-76
2024/02/10 05:48:05;;;;;;;;;9.00;9.00;;;;;;;;5058915;28;45407;-77
2024/02/10 05:50:32;;;;;;;;;8.33;8.33;;;;;;;;5058831;28;46212;-76
2024/02/10 05:52:58;;;;;;;;;8.00;8.00;;;;;;;;5057371;28;46013;-77
2024/02/10 05:55:27;;;;;;;;;10.00;10.00;;;;;;;;5059232;28;45276;-76
2024/02/10 05:57:55;;;;;;;;;10.67;9.00;;;;;;;;5071001;28;45307;-76
2024/02/10 06:00:23;;;;;;;;;10.00;9.00;;;;;;;;5082811;27;46225;-76
2024/02/10 06:02:48;;;;;;;;;10.33;10.33;;;;;;;;5082826;27;45365;-76
2024/02/10 06:05:14;;;;;;;;;11.33;11.00;;;;;;;;5082938;28;45468;-76
2024/02/10 06:07:41;;;;;;;;;7.00;7.00;;;;;;;;5081793;28;45433;-76
2024/02/10 06:10:09;;;;;;;;;9.00;9.00;;;;;;;;5082689;27;45428;-76
2024/02/10 06:12:41;;;;;;;;;9.67;9.67;;;;;;;;5082818;27;45271;-76
2024/02/10 06:15:09;;;;;;;;;9.33;9.00;;;;;;;;5082942;27;45268;-76
2024/02/10 06:17:34;;;;;;;;;9.33;9.33;;;;;;;;5082598;27;45433;-76
2024/02/10 06:20:06;;;;;;;;;12.00;11.67;;;;;;;;5082609;27;46514;-76
2024/02/10 06:22:32;;;;;;;;;8.67;8.00;;;;;;;;5081198;28;45452;-76
2024/02/10 06:24:57;;;;;;;;;9.00;9.00;;;;;;;;5081269;28;45371;-76
2024/02/10 06:27:22;;;;;;;;;8.33;8.33;;;;;;;;5082602;27;45600;-76
2024/02/10 06:29:48;;;;;;;;;13.00;11.00;;;;;;;;5080983;28;47456;-76
2024/02/10 06:32:13;;;;;;;;;9.67;9.67;;;;;;;;5082449;27;45279;-76
2024/02/10 06:34:41;;;;;;;;;11.00;11.00;;;;;;;;5082571;27;45290;-76
2024/02/10 06:37:07;;;;;;;;;13.00;11.00;;;;;;;;5082540;27;45511;-76
2024/02/10 06:39:32;;;;;;;;;9.00;9.00;;;;;;;;5082186;27;45840;-76
2024/02/10 06:41:59;;;;;;;;;6.00;5.33;;;;;;;;5081017;28;45815;-76
2024/02/10 06:44:24;;;;;;;;;12.33;10.67;;;;;;;;5082669;27;45396;-77
2024/02/10 06:46:49;;;;;;;;;13.00;8.33;;;;;;;;5082086;27;45420;-76
2024/02/10 06:49:20;;;;;;;;;10.00;9.00;;;;;;;;5082187;27;45328;-77
2024/02/10 06:51:46;;;;;;;;;11.33;11.33;;;;;;;;5082047;27;45492;-76
2024/02/10 06:54:12;;;;;;;;;9.00;8.00;;;;;;;;5079866;28;45386;-76
2024/02/10 06:56:38;;;;;;;;;12.00;10.33;;;;;;;;5077772;28;47070;-76
2024/02/10 06:59:03;;;;;;;;;11.00;10.00;;;;;;;;5060633;28;45956;-76
2024/02/10 07:01:29;;;;;;;;;9.33;8.00;;;;;;;;5060649;28;45241;-76
2024/02/10 07:03:57;;;;;;;;;9.00;8.33;;;;;;;;5060680;28;45422;-76
2024/02/10 07:06:28;;;;;;;;;11.00;9.33;;;;;;;;5060494;28;45476;-77
2024/02/10 07:08:54;;;;;;;;;10.00;10.00;;;;;;;;5058763;28;47714;-76
2024/02/10 07:11:19;;;;;;;;;7.33;7.33;;;;;;;;5060529;28;45156;-76
2024/02/10 07:13:44;;;;;;;;;15.33;12.33;;;;;;;;5060824;28;45541;-77
2024/02/10 07:16:09;;;;;;;;;11.33;11.00;;;;;;;;5059984;28;45393;-76
2024/02/10 07:18:41;;;;;;;;;12.67;12.67;;;;;;;;5060134;28;45344;-76
2024/02/10 07:21:06;;;;;;;;;13.33;12.00;;;;;;;;5058574;28;45750;-76
2024/02/10 07:23:31;;;;;;;;;9.67;9.33;;;;;;;;5059712;28;45473;-76
2024/02/10 07:25:57;;;;;;;;;8.33;8.00;;;;;;;;5059986;28;45243;-77
2024/02/10 07:28:22;;;;;;;;;10.00;10.00;;;;;;;;5058722;28;47484;-76
2024/02/10 07:30:51;;;;;;;;;11.67;10.33;;;;;;;;5060261;28;45211;-76
2024/02/10 07:33:17;;;;;;;;;10.67;10.67;;;;;;;;5060119;28;45298;-77
2024/02/10 07:35:43;;;;;;;;;12.00;10.00;;;;;;;;5059865;28;45368;-76
2024/02/10 07:38:08;;;;;;;;;13.00;12.33;;;;;;;;5059899;28;46196;-76
2024/02/10 07:40:35;;;;;;;;;9.67;9.67;;;;;;;;5059726;28;45351;-76
2024/02/10 07:43:00;;;;;;;;;13.33;9.67;;;;;;;;5060201;28;45305;-77
2024/02/10 07:45:26;;;;;;;;;10.67;10.67;;;;;;;;5058213;28;45996;-76
2024/02/10 07:47:51;;;;;;;;;11.33;10.33;;;;;;;;5059602;28;45290;-76
2024/02/10 07:50:16;;;;;;;;;18.00;14.33;;;;;;;;5058363;28;46003;-76
2024/02/10 07:52:45;;;;;;;;;14.00;10.33;;;;;;;;5020984;28;1123969;-77
2024/02/10 07:55:12;;;;;;;;;7.00;7.00;;;;;;;;5060948;28;45371;-75
2024/02/10 07:57:38;;;;;;;;;12.67;12.67;;;;;;;;5070755;28;46282;-75
2024/02/10 08:00:03;;;;;;;;;12.00;10.00;;;;;;;;5081134;27;45375;-75
2024/02/10 08:02:28;;;;;;;;;17.67;11.33;;;;;;;;5079842;28;45351;-76
2024/02/10 08:04:56;;;;;;;;;11.33;11.33;;;;;;;;5080905;27;45331;-76
2024/02/10 08:07:22;;;;;;;;;10.00;10.00;;;;;;;;5081032;27;46205;-76
2024/02/10 08:09:47;;;;;;;;;11.33;11.33;;;;;;;;5080993;27;45216;-76
2024/02/10 08:12:20;;;;;;;;;12.00;12.00;;;;;;;;5081230;27;45244;-76
2024/02/10 08:14:47;;;;;;;;;11.67;11.67;;;;;;;;5080991;27;45242;-76
2024/02/10 08:17:12;;;;;;;;;12.00;12.00;;;;;;;;5080655;27;46103;-76
2024/02/10 08:19:39;;;;;;;;;13.67;13.67;;;;;;;;5080778;27;45161;-76
2024/02/10 08:22:11;;;;;;;;;14.33;13.00;;;;;;;;5078740;28;45381;-76
2024/02/10 08:24:38;;;;;;;;;12.67;12.67;;;;;;;;5079187;28;46384;-76
2024/02/10 08:27:03;;;;;;;;;18.33;16.33;;;;;;;;5079059;28;47252;-76
2024/02/10 08:29:33;;;;;;;;;14.33;14.33;;;;;;;;5080705;27;45282;-76
2024/02/10 08:32:01;;;;;;;;;14.00;14.00;;;;;;;;5080599;27;45246;-76
2024/02/10 08:34:27;;;;;;;;;14.00;13.00;;;;;;;;5080302;27;45504;-76
2024/02/10 08:36:53;;;;;;;;;14.33;13.33;;;;;;;;5078930;28;47194;-76
2024/02/10 08:39:18;;;;;;;;;17.33;15.33;;;;;;;;5080400;27;45173;-77
2024/02/10 08:41:43;;;;;;;;;13.67;13.67;;;;;;;;5079087;28;45294;-76
2024/02/10 08:44:08;;;;;;;;;12.67;12.00;;;;;;;;5080495;28;45530;-76
2024/02/10 08:46:36;;;;;;;;;14.33;13.33;;;;;;;;5080177;27;45289;-76
2024/02/10 08:49:01;;;;;;;;;17.67;13.00;;;;;;;;5080393;27;45377;-78
2024/02/10 08:51:27;;;;;;;;;19.67;18.33;;;;;;;;5080293;28;45353;-78
2024/02/10 08:53:54;;;;;;;;;12.00;11.33;;;;;;;;5080327;28;45310;-78
2024/02/10 08:56:20;;;;;;;;;9.33;6.00;;;;;;;;5079885;27;46088;-78
2024/02/10 08:58:45;;;;;;;;;9.33;8.67;;;;;;;;5060518;28;45129;-78
2024/02/10 09:01:15;;;;;;;;;11.00;10.00;;;;;;;;5059642;28;45262;-78
2024/02/10 09:03:52;;;;;;;;;8.00;8.00;;;;;;;;5059435;28;45341;-78
2024/02/10 09:06:21;;;;;;;;;10.00;7.00;;;;;;;;5059378;28;45446;-78
2024/02/10 09:08:47;;;;;;;;;9.33;7.00;;;;;;;;5059846;28;45282;-78
2024/02/10 09:11:18;;;;;;;;;8.67;8.67;;;;;;;;5058482;28;45260;-78
2024/02/10 09:13:45;;;;;;;;;10.33;10.33;;;;;;;;5059705;28;45530;-79
2024/02/10 09:16:11;;;;;;;;;13.33;12.67;;;;;;;;5057962;28;48644;-78
2024/02/10 09:18:36;;;;;;;;;10.00;9.00;;;;;;;;5058018;28;45928;-78
2024/02/10 09:21:02;;;;;;;;;10.33;10.33;;;;;;;;5059572;28;45220;-78
2024/02/10 09:23:29;;;;;;;;;12.33;12.00;;;;;;;;5059581;28;45268;-79
2024/02/10 09:25:55;;;;;;;;;6.67;6.67;;;;;;;;5059328;28;45716;-78
2024/02/10 09:28:20;;;;;;;;;9.33;9.33;;;;;;;;5059628;28;45425;-78
2024/02/10 09:30:46;;;;;;;;;10.67;9.00;;;;;;;;5058287;28;45296;-79
2024/02/10 09:33:19;;;;;;;;;10.33;10.33;;;;;;;;5059198;28;45341;-78
2024/02/10 09:35:45;;;;;;;;;7.00;6.33;;;;;;;;5059256;28;45435;-78
2024/02/10 09:38:12;;;;;;;;;10.00;10.00;;;;;;;;5059317;28;45414;-78
2024/02/10 09:40:39;;;;;;;;;8.00;8.00;;;;;;;;5059324;28;45398;-77
2024/02/10 09:43:08;;;;;;;;;12.33;11.00;;;;;;;;5059346;28;45280;-77
2024/02/10 09:45:35;;;;;;;;;8.67;8.67;;;;;;;;5053174;28;45528;-77
2024/02/10 09:48:01;;;;;;;;;11.00;11.00;;;;;;;;5054691;28;45359;-77
2024/02/10 09:50:31;;;;;;;;;10.00;10.00;;;;;;;;5057094;28;45362;-77
2024/02/10 09:52:56;;;;;;;;;9.67;9.67;;;;;;;;5057392;28;47274;-78
2024/02/10 09:55:21;;;;;;;;;10.33;9.00;;;;;;;;5058842;28;46263;-78
2024/02/10 09:57:47;;;;;;;;;9.00;9.00;;;;;;;;5058918;28;45236;-79
2024/02/10 10:00:16;;;;;;;;;9.67;9.67;;;;;;;;5059098;28;45265;-79
2024/02/10 10:02:46;;;;;;;;;10.00;8.00;;;;;;;;5057124;28;46161;-79
2024/02/10 10:05:11;;;;;;;;;11.33;9.67;;;;;;;;5057579;28;45923;-79
2024/02/10 10:07:36;;;;;;;;;10.33;10.33;;;;;;;;5057532;28;45268;-79
2024/02/10 10:10:02;;;;;;;;;8.00;8.00;;;;;;;;5059184;28;45319;-78
2024/02/10 10:12:35;;;;;;;;;10.33;8.00;;;;;;;;5058856;28;45276;-78
2024/02/10 10:15:00;;;;;;;;;6.67;5.33;;;;;;;;5042687;28;45532;-79
2024/02/10 10:17:38;;;;;;;;;8.00;8.00;;;;;;;;5057369;28;45862;-78
2024/02/10 10:20:10;;;;;;;;;8.00;8.00;;;;;;;;5058928;28;45411;-78
2024/02/10 10:22:35;;;;;;;;;9.00;7.67;;;;;;;;5056277;28;46507;-79
2024/02/10 10:25:02;;;;;;;;;11.67;11.00;;;;;;;;5058417;28;45437;-79
2024/02/10 10:27:29;;;;;;;;;11.00;10.67;;;;;;;;5058885;28;45275;-79
2024/02/10 10:29:54;;;;;;;;;12.33;11.00;;;;;;;;5057504;28;45312;-79
2024/02/10 10:32:20;;;;;;;;;13.33;12.00;;;;;;;;5058527;28;45331;-79
2024/02/10 10:34:46;;;;;;;;;12.00;12.00;;;;;;;;5058476;28;45398;-80
2024/02/10 10:37:12;;;;;;;;;11.33;10.33;;;;;;;;5058621;28;45269;-79
2024/02/10 10:39:40;;;;;;;;;13.00;12.67;;;;;;;;5058639;28;45350;-79
2024/02/10 10:42:07;;;;;;;;;11.00;11.00;;;;;;;;5058110;28;45208;-80
2024/02/10 10:44:34;;;;;;;;;12.00;11.67;;;;;;;;5057741;28;46202;-80
2024/02/10 10:46:59;;;;;;;;;13.67;13.67;;;;;;;;5054896;28;45330;-79
2024/02/10 10:49:25;;;;;;;;;12.00;12.00;;;;;;;;5056880;28;45366;-79
2024/02/10 10:52:02;;;;;;;;;14.00;12.33;;;;;;;;5054761;28;45398;-79
2024/02/10 10:54:31;;;;;;;;;13.00;13.00;;;;;;;;5049263;28;46977;-79
2024/02/10 10:56:56;;;;;;;;;13.00;11.33;;;;;;;;5064100;28;45515;-80
2024/02/10 10:59:23;;;;;;;;;16.00;14.00;;;;;;;;5061658;28;45236;-80
2024/02/10 11:01:48;;;;;;;;;12.00;10.33;;;;;;;;5059730;28;47197;-79
2024/02/10 11:04:14;;;;;;;;;9.33;9.33;;;;;;;;5060041;28;46023;-79
2024/02/10 11:06:42;;;;;;;;;10.33;10.33;;;;;;;;5059941;28;46574;-80
2024/02/10 11:09:08;;;;;;;;;10.33;10.00;;;;;;;;5061861;28;45306;-79
2024/02/10 11:11:37;;;;;;;;;13.00;11.00;;;;;;;;5060810;28;45307;-79
2024/02/10 11:14:09;;;;;;;;;12.33;10.67;;;;;;;;5061478;28;45312;-79
2024/02/10 11:16:34;;;;;;;;;8.67;8.67;;;;;;;;5060878;28;45401;-79
2024/02/10 11:19:02;;;;;;;;;14.33;12.00;;;;;;;;5061288;28;45459;-79
2024/02/10 11:21:30;;;;;;;;;12.00;10.00;;;;;;;;5060696;28;45280;-79
2024/02/10 11:23:59;;;;;;;;;10.67;10.67;;;;;;;;5060740;28;45436;-78
2024/02/10 11:26:26;;;;;;;;;9.00;9.00;;;;;;;;5061212;28;45453;-79
2024/02/10 11:28:58;;;;;;;;;11.67;11.67;;;;;;;;5061489;28;45306;-79
2024/02/10 11:31:23;;;;;;;;;11.00;11.00;;;;;;;;5061053;28;45501;-79
2024/02/10 11:33:48;;;;;;;;;11.67;10.67;;;;;;;;5059505;28;47245;-79
2024/02/10 11:36:14;;;;;;;;;10.67;10.67;;;;;;;;5060884;28;45236;-79
2024/02/10 11:38:40;;;;;;;;;12.33;10.33;;;;;;;;5059349;28;45930;-79
2024/02/10 11:41:05;;;;;;;;;12.33;10.00;;;;;;;;5059391;28;46396;-78
2024/02/10 11:43:31;;;;;;;;;11.00;9.67;;;;;;;;5059301;28;47188;-78
2024/02/10 11:45:57;;;;;;;;;12.00;12.00;;;;;;;;5059424;28;45452;-78
2024/02/10 11:48:22;;;;;;;;;10.00;9.00;;;;;;;;5059260;28;45386;-78
2024/02/10 11:50:49;;;;;;;;;14.33;10.33;;;;;;;;5059428;28;47321;-79
2024/02/10 11:53:15;;;;;;;;;12.67;11.33;;;;;;;;5060388;28;46250;-79
2024/02/10 11:55:41;;;;;;;;;12.00;12.00;;;;;;;;5059625;28;45370;-79
2024/02/10 11:58:08;;;;;;;;;13.00;13.00;;;;;;;;5071787;28;45883;-79
2024/02/10 12:00:33;;;;;;;;;15.00;14.00;;;;;;;;5060779;28;45415;-79
2024/02/10 12:02:59;;;;;;;;;3.00;1.67;;;;;;;;5058833;28;47393;-79
2024/02/10 12:05:28;;;;;;;;;14.67;13.00;;;;;;;;5059034;28;45317;-79
2024/02/10 12:07:53;;;;;;;;;13.67;13.00;;;;;;;;5060359;28;45323;-79
2024/02/10 12:10:18;;;;;;;;;11.00;11.00;;;;;;;;5059010;28;47499;-79
2024/02/10 12:12:50;;;;;;;;;15.00;15.00;;;;;;;;5060237;28;46106;-79
2024/02/10 12:15:15;;;;;;;;;12.67;12.67;;;;;;;;5060446;28;45213;-79
2024/02/10 12:17:40;;;;;;;;;14.00;12.67;;;;;;;;5059777;28;45263;-78
2024/02/10 12:20:07;;;;;;;;;12.00;12.00;;;;;;;;5060136;28;45466;-78
2024/02/10 12:22:33;;;;;;;;;14.00;14.00;;;;;;;;5059692;28;47023;-79
2024/02/10 12:24:58;;;;;;;;;16.67;14.67;;;;;;;;5060027;28;45212;-79
2024/02/10 12:27:25;;;;;;;;;15.67;15.33;;;;;;;;5060235;28;45446;-79
2024/02/10 12:29:51;;;;;;;;;14.67;14.67;;;;;;;;5058675;28;46143;-79
2024/02/10 12:32:16;;;;;;;;;18.33;15.67;;;;;;;;5059617;28;45379;-79
2024/02/10 12:34:42;;;;;;;;;15.00;13.67;;;;;;;;5059799;28;45295;-79
2024/02/10 12:37:07;;;;;;;;;15.33;14.33;;;;;;;;5058581;28;45389;-80
2024/02/10 12:39:32;;;;;;;;;15.33;14.00;;;;;;;;5059829;28;45321;-79
2024/02/10 12:41:59;;;;;;;;;15.00;14.33;;;;;;;;5059710;28;45472;-79
2024/02/10 12:44:24;;;;;;;;;17.00;16.67;;;;;;;;5060038;28;45382;-79
2024/02/10 12:46:49;;;;;;;;;15.33;14.67;;;;;;;;5058035;28;45350;-79
2024/02/10 12:49:14;;;;;;;;;15.33;13.67;;;;;;;;5059830;28;45470;-79
2024/02/10 12:51:40;;;;;;;;;14.00;12.67;;;;;;;;5059311;28;45429;-79
2024/02/10 12:54:05;;;;;;;;;13.33;12.33;;;;;;;;5059796;28;45413;-79
2024/02/10 12:56:30;;;;;;;;;14.33;14.33;;;;;;;;5060343;28;45257;-79
2024/02/10 12:58:56;;;;;;;;;18.00;18.00;;;;;;;;5068977;28;45837;-79
2024/02/10 13:01:24;;;;;;;;;15.00;13.67;;;;;;;;5058925;28;45398;-79
2024/02/10 13:03:49;;;;;;;;;15.00;14.67;;;;;;;;5057990;28;45318;-78
2024/02/10 13:06:14;;;;;;;;;15.00;12.33;;;;;;;;5059499;28;45534;-79
2024/02/10 13:08:39;;;;;;;;;15.33;13.67;;;;;;;;5057635;28;47221;-79
2024/02/10 13:11:05;;;;;;;;;15.33;13.67;;;;;;;;5059386;28;45646;-78
2024/02/10 13:13:30;;;;;;;;;14.00;14.00;;;;;;;;5059182;28;45408;-78
2024/02/10 13:15:55;;;;;;;;;13.00;13.00;;;;;;;;5057972;28;45334;-78
2024/02/10 13:18:21;;;;;;;;;10.67;10.67;;;;;;;;5055379;28;45374;-78
2024/02/10 13:20:46;;;;;;;;;11.00;8.00;;;;;;;;5057433;28;46237;-78
2024/02/10 13:23:11;;;;;;;;;10.67;10.33;;;;;;;;5056851;28;45778;-78
2024/02/10 13:25:36;;;;;;;;;10.67;10.00;;;;;;;;5058236;28;45343;-77
2024/02/10 13:28:01;;;;;;;;;11.67;10.00;;;;;;;;5050688;28;45977;-77
2024/02/10 13:30:26;;;;;;;;;11.67;11.67;;;;;;;;5039050;28;46234;-78
2024/02/10 13:32:58;;;;;;;;;12.33;10.33;;;;;;;;5057967;28;45336;-77
2024/02/10 13:35:23;;;;;;;;;14.33;12.00;;;;;;;;5056702;28;45269;-78
2024/02/10 14:12:50;;;;;;;;;3.33;3.33;;;;;;;;5058174;28;45318;-78
2024/02/10 14:15:16;;;;;;;;;4.33;3.67;;;;;;;;5058473;28;45395;-79
2024/02/10 14:17:42;;;;;;;;;5.00;3.33;;;;;;;;5056986;28;45345;-79
2024/02/10 14:20:18;;;;;;;;;6.00;5.00;;;;;;;;5060217;28;45332;-79
2024/02/10 14:22:43;;;;;;;;;3.67;3.67;;;;;;;;5060711;28;48411;-79
2024/02/10 14:25:13;;;;;;;;;3.67;3.67;;;;;;;;5062022;28;45327;-79
2024/02/10 14:27:42;;;;;;;;;4.33;4.33;;;;;;;;5061876;28;45310;-79
2024/02/10 14:30:13;;;;;;;;;6.33;6.33;;;;;;;;5061912;28;45518;-78
2024/02/10 14:32:41;;;;;;;;;4.33;4.33;;;;;;;;5061729;28;45340;-78
2024/02/10 14:35:19;;;;;;;;;5.00;5.00;;;;;;;;5060564;28;45909;-78
2024/02/10 14:37:57;;;;;;;;;7.33;7.33;;;;;;;;5060692;28;45310;-77
2024/02/10 14:40:28;;;;;;;;;8.33;8.33;;;;;;;;5061893;28;45437;-77
2024/02/10 14:42:54;;;;;;;;;14.67;11.67;;;;;;;;5060522;28;48251;-79
2024/02/10 14:45:20;;;;;;;;;10.33;9.00;;;;;;;;5057350;28;45576;-78
2024/02/10 14:47:46;;;;;;;;;14.00;14.00;;;;;;;;5060728;28;45457;-78
2024/02/10 14:50:11;;;;;;;;;9.33;9.33;;;;;;;;5056661;28;45976;-78
2024/02/10 14:52:39;;;;;;;;;11.33;10.33;;;;;;;;5045328;28;46142;-78
2024/02/10 14:55:04;;;;;;;;;12.67;12.33;;;;;;;;5052469;28;45322;-77
2024/02/10 14:57:30;;;;;;;;;13.00;12.00;;;;;;;;5052188;28;45275;-78
2024/02/10 14:59:55;;;;;;;;;10.67;9.67;;;;;;;;5061478;28;45389;-78
2024/02/10 15:02:23;;;;;;;;;9.00;8.33;;;;;;;;5057777;28;46602;-78